Flight Briefing for CMB827

Departure Arrival
Wake Island Airfield (PWAK)
Click to view FAA NOTAMS
Daniel K Inouye International Airport (PHNL)
Click to view FAA NOTAMS
Departure Time Arrival Time
N/A N/A
Aircraft Distance
B757-200SF 1998nm
Departure METAR Arrival METAR
PWAK 190758Z AUTO 06009KT 9999 FEW023 26/20 A2994 RMK AO2 SLPNO PHNL 190753Z 07011G16KT 10SM FEW029 SCT045 23/13 A3009 RMK AO2 SLP189 T02280133
Suggested Route
AWK 2000N/17000E 2100N/18000E 2100N/17000W KATHS


View recent IFR Routes data
Notes
USTRANSCOM CONTRACT FLIGHT

Charts and Procedures

Charts for PWAK
No chart available
Charts for PHNL
No chart available

Windy.com Weather Map